createdAt,value
2023-04-06T00:00:30.024Z,7.74
2023-04-06T00:01:29.990Z,7.69
2023-04-06T00:02:30.054Z,7.72
2023-04-06T00:03:30.076Z,7.77
2023-04-06T00:04:29.984Z,7.67
2023-04-06T00:05:29.977Z,7.68
2023-04-06T00:06:29.978Z,7.74
2023-04-06T00:07:29.965Z,7.72
2023-04-06T00:08:29.975Z,7.68
2023-04-06T00:09:29.956Z,7.72
2023-04-06T00:10:30.280Z,7.71
2023-04-06T00:11:29.952Z,7.68
2023-04-06T00:12:29.958Z,7.72
2023-04-06T00:13:30.271Z,7.74
2023-04-06T00:14:29.951Z,7.69
2023-04-06T00:15:29.933Z,7.75
2023-04-06T00:16:30.649Z,7.71
2023-04-06T00:17:29.934Z,7.68
2023-04-06T00:18:29.926Z,7.74
2023-04-06T00:19:29.920Z,7.72
2023-04-06T00:20:29.916Z,7.74
2023-04-06T00:21:29.931Z,7.75
2023-04-06T00:22:29.911Z,7.75
2023-04-06T00:23:29.896Z,7.72
2023-04-06T00:24:29.897Z,7.57
2023-04-06T00:25:29.899Z,7.55
2023-04-06T00:26:29.888Z,7.50
2023-04-06T00:27:29.887Z,7.35
2023-04-06T00:28:29.883Z,7.30
2023-04-06T00:29:29.878Z,7.21
2023-04-06T00:30:29.878Z,7.17
2023-04-06T00:31:29.913Z,7.16
2023-04-06T00:32:29.932Z,7.21
2023-04-06T00:33:29.864Z,7.09
2023-04-06T00:34:29.869Z,7.13
2023-04-06T00:35:29.856Z,7.10
2023-04-06T00:36:29.857Z,6.99
2023-04-06T00:37:29.846Z,6.92
2023-04-06T00:38:29.858Z,6.76
2023-04-06T00:39:29.843Z,6.81
2023-04-06T00:40:29.863Z,6.85
2023-04-06T00:41:29.831Z,6.85
2023-04-06T00:42:29.829Z,6.88
2023-04-06T00:43:29.822Z,6.85
2023-04-06T00:44:29.820Z,6.74
2023-04-06T00:45:29.821Z,6.76
2023-04-06T00:46:30.030Z,6.80
2023-04-06T00:47:29.884Z,6.84
2023-04-06T00:48:29.836Z,6.87
2023-04-06T00:49:29.800Z,6.80
2023-04-06T00:50:29.798Z,6.81
2023-04-06T00:51:29.789Z,6.79
2023-04-06T00:52:29.808Z,6.87
2023-04-06T00:53:29.786Z,6.89
2023-04-06T00:54:29.785Z,6.89
2023-04-06T00:55:29.776Z,6.88
2023-04-06T00:56:29.775Z,6.88
2023-04-06T00:57:29.781Z,6.89
2023-04-06T00:58:29.764Z,6.91
2023-04-06T00:59:29.805Z,6.94
2023-04-06T01:00:29.759Z,6.85
2023-04-06T01:01:29.864Z,7.02
2023-04-06T01:02:29.785Z,6.95
2023-04-06T01:03:29.748Z,7.09
2023-04-06T01:04:29.761Z,7.07
2023-04-06T01:05:29.779Z,7.07
2023-04-06T01:06:29.729Z,7.09
2023-04-06T01:07:29.720Z,7.12
2023-04-06T01:08:29.721Z,7.15
2023-04-06T01:09:29.738Z,7.17
2023-04-06T01:10:29.720Z,7.21
2023-04-06T01:11:29.708Z,7.24
2023-04-06T01:12:29.710Z,7.16
2023-04-06T01:13:29.707Z,7.20
2023-04-06T01:14:29.702Z,7.17
2023-04-06T01:15:29.695Z,7.12
2023-04-06T01:16:29.761Z,7.13
2023-04-06T01:17:29.763Z,7.16
2023-04-06T01:18:29.684Z,7.12
2023-04-06T01:19:29.684Z,7.24
2023-04-06T01:20:29.819Z,7.17
2023-04-06T01:21:29.669Z,7.15
2023-04-06T01:22:29.668Z,7.13
2023-04-06T01:23:29.671Z,7.12
2023-04-06T01:24:29.661Z,7.21
2023-04-06T01:25:29.652Z,7.21
2023-04-06T01:26:29.653Z,7.16
2023-04-06T01:27:29.645Z,7.17
2023-04-06T01:28:29.643Z,7.15
2023-04-06T01:29:29.646Z,7.21
2023-04-06T01:30:29.638Z,7.09
2023-04-06T01:31:29.669Z,7.09
2023-04-06T01:32:29.635Z,7.02
2023-04-06T01:33:29.627Z,6.99
2023-04-06T01:34:29.619Z,7.03
2023-04-06T01:35:29.656Z,6.98
2023-04-06T01:36:29.630Z,6.95
2023-04-06T01:37:29.602Z,7.02
2023-04-06T01:38:29.604Z,6.98
2023-04-06T01:39:29.596Z,6.98
2023-04-06T01:40:29.588Z,6.97
2023-04-06T01:41:29.586Z,6.98
2023-04-06T01:42:29.591Z,6.89
2023-04-06T01:43:29.580Z,6.85
2023-04-06T01:44:29.573Z,6.84
2023-04-06T01:45:29.583Z,6.85
2023-04-06T01:46:29.623Z,6.85
2023-04-06T01:47:29.624Z,6.79
2023-04-06T01:48:29.553Z,6.79
2023-04-06T01:49:29.558Z,6.81
2023-04-06T01:50:29.546Z,6.84
2023-04-06T01:51:29.549Z,6.85
2023-04-06T01:52:29.570Z,6.79
2023-04-06T01:53:29.537Z,6.84
2023-04-06T01:54:29.530Z,6.80
2023-04-06T01:55:29.544Z,6.87
2023-04-06T01:56:29.519Z,6.77
2023-04-06T01:57:29.527Z,6.88
2023-04-06T01:58:29.522Z,6.77
2023-04-06T01:59:29.544Z,6.92
2023-04-06T02:00:29.507Z,6.87
2023-04-06T02:01:29.545Z,6.88
2023-04-06T02:02:29.758Z,6.94
2023-04-06T02:03:29.506Z,6.84
2023-04-06T02:04:29.486Z,6.89
2023-04-06T02:05:29.489Z,6.85
2023-04-06T02:06:29.481Z,6.79
2023-04-06T02:07:29.482Z,6.73
2023-04-06T02:08:29.498Z,6.73
2023-04-06T02:09:29.467Z,6.54
2023-04-06T02:10:29.662Z,6.66
2023-04-06T02:11:29.470Z,6.62
2023-04-06T02:12:29.453Z,6.62
2023-04-06T02:13:29.450Z,6.48
2023-04-06T02:14:29.443Z,6.41
2023-04-06T02:15:29.435Z,6.40
2023-04-06T02:16:29.466Z,6.43
2023-04-06T02:17:29.485Z,6.36
2023-04-06T02:18:29.445Z,6.34
2023-04-06T02:19:29.422Z,6.38
2023-04-06T02:20:29.419Z,6.41
2023-04-06T02:21:29.412Z,6.36
2023-04-06T02:22:29.407Z,6.36
2023-04-06T02:23:29.407Z,6.28
2023-04-06T02:24:29.421Z,6.14
2023-04-06T02:25:29.397Z,6.17
2023-04-06T02:26:29.398Z,6.09
2023-04-06T02:27:29.392Z,6.15
2023-04-06T02:28:29.400Z,6.08
2023-04-06T02:29:29.386Z,6.14
2023-04-06T02:30:29.374Z,6.12
2023-04-06T02:31:29.437Z,6.17
2023-04-06T02:32:29.398Z,6.08
2023-04-06T02:33:29.362Z,6.00
2023-04-06T02:34:29.359Z,5.96
2023-04-06T02:35:29.410Z,6.08
2023-04-06T02:36:29.358Z,6.08
2023-04-06T02:37:29.349Z,6.12
2023-04-06T02:38:29.342Z,6.04
2023-04-06T02:39:29.333Z,5.99
2023-04-06T02:40:29.352Z,6.03
2023-04-06T02:41:29.328Z,6.06
2023-04-06T02:42:29.315Z,6.12
2023-04-06T02:43:29.316Z,6.09
2023-04-06T02:44:29.305Z,6.15
2023-04-06T02:45:29.306Z,6.08
2023-04-06T02:46:29.312Z,6.06
2023-04-06T02:47:29.340Z,6.17
2023-04-06T02:48:29.293Z,6.17
2023-04-06T02:49:29.291Z,6.11
2023-04-06T02:50:29.282Z,6.14
2023-04-06T02:51:29.277Z,6.21
2023-04-06T02:52:29.275Z,6.12
2023-04-06T02:53:29.645Z,6.09
2023-04-06T02:54:29.271Z,6.11
2023-04-06T02:55:29.283Z,6.19
2023-04-06T02:56:29.299Z,6.18
2023-04-06T02:57:29.264Z,6.18
2023-04-06T02:58:29.244Z,6.27
2023-04-06T02:59:29.269Z,6.31
2023-04-06T03:00:29.239Z,6.27
2023-04-06T03:01:29.280Z,6.37
2023-04-06T03:02:29.323Z,6.41
2023-04-06T03:03:29.354Z,6.31
2023-04-06T03:04:29.215Z,6.40
2023-04-06T03:05:29.213Z,6.38
2023-04-06T03:06:29.212Z,6.37
2023-04-06T03:07:29.211Z,6.40
2023-04-06T03:08:29.198Z,6.41
2023-04-06T03:09:29.203Z,6.49
2023-04-06T03:10:29.188Z,6.31
2023-04-06T03:11:29.188Z,6.43
2023-04-06T03:12:29.205Z,6.40
2023-04-06T03:13:29.193Z,6.37
2023-04-06T03:14:29.187Z,6.37
2023-04-06T03:15:29.205Z,6.37
2023-04-06T03:16:29.164Z,6.28
2023-04-06T03:17:29.186Z,6.30
2023-04-06T03:18:29.160Z,6.30
2023-04-06T03:19:29.148Z,6.34
2023-04-06T03:20:29.146Z,6.30
2023-04-06T03:21:29.145Z,6.38
2023-04-06T03:22:29.129Z,6.33
2023-04-06T03:23:29.128Z,6.31
2023-04-06T03:24:29.118Z,6.06
2023-04-06T03:25:29.122Z,6.14
2023-04-06T03:26:29.109Z,6.12
2023-04-06T03:27:29.109Z,6.11
2023-04-06T03:28:29.118Z,6.00
2023-04-06T03:29:29.098Z,6.06
2023-04-06T03:30:29.092Z,6.12
2023-04-06T03:31:29.134Z,6.00
2023-04-06T03:32:29.155Z,5.91
2023-04-06T03:33:29.081Z,5.94
2023-04-06T03:34:29.075Z,5.90
2023-04-06T03:35:29.083Z,5.91
2023-04-06T03:36:29.066Z,5.94
2023-04-06T03:37:29.059Z,5.86
2023-04-06T03:38:29.050Z,5.81
2023-04-06T03:39:29.051Z,5.79
2023-04-06T03:40:29.074Z,5.83
2023-04-06T03:41:29.054Z,5.90
2023-04-06T03:42:29.039Z,6.03
2023-04-06T03:43:29.040Z,5.91
2023-04-06T03:44:29.044Z,5.86
2023-04-06T03:45:29.022Z,5.90
2023-04-06T03:46:29.060Z,5.85
2023-04-06T03:47:29.035Z,5.82
2023-04-06T03:48:29.004Z,5.82
2023-04-06T03:49:29.006Z,5.82
2023-04-06T03:50:28.995Z,5.71
2023-04-06T03:51:29.001Z,5.67
2023-04-06T03:52:28.985Z,5.67
2023-04-06T03:53:28.991Z,5.71
2023-04-06T03:54:28.970Z,5.71
2023-04-06T03:55:28.976Z,5.67
2023-04-06T03:56:28.981Z,5.65
2023-04-06T03:57:28.968Z,5.61
2023-04-06T03:58:28.954Z,5.53
2023-04-06T03:59:28.970Z,5.51
2023-04-06T04:00:28.970Z,5.58
2023-04-06T04:01:28.941Z,5.42
2023-04-06T04:02:29.237Z,5.40
2023-04-06T04:03:29.058Z,5.39
2023-04-06T04:04:28.927Z,5.48
2023-04-06T04:05:29.036Z,5.40
2023-04-06T04:06:28.937Z,5.43
2023-04-06T04:07:28.923Z,5.31
2023-04-06T04:08:28.908Z,5.28
2023-04-06T04:09:29.878Z,5.21
2023-04-06T04:10:28.895Z,5.17
2023-04-06T04:11:28.894Z,5.15
2023-04-06T04:12:28.889Z,5.02
2023-04-06T04:13:28.893Z,5.04
2023-04-06T04:14:28.881Z,4.99
2023-04-06T04:15:28.874Z,4.92
2023-04-06T04:16:28.934Z,4.92
2023-04-06T04:17:28.887Z,4.99
2023-04-06T04:18:28.852Z,5.07
2023-04-06T04:19:28.855Z,5.03
2023-04-06T04:20:28.845Z,5.04
2023-04-06T04:21:28.849Z,4.99
2023-04-06T04:22:28.852Z,5.02
2023-04-06T04:23:28.831Z,4.97
2023-04-06T04:24:28.827Z,4.94
2023-04-06T04:25:28.825Z,5.10
2023-04-06T04:26:28.811Z,5.00
2023-04-06T04:27:28.816Z,5.03
2023-04-06T04:29:28.810Z,4.94
2023-04-06T04:30:28.807Z,4.91
2023-04-06T04:31:28.826Z,4.94
2023-04-06T04:32:28.877Z,4.96
2023-04-06T04:33:28.796Z,5.06
2023-04-06T04:34:28.787Z,5.12
2023-04-06T04:35:28.853Z,5.09
2023-04-06T04:36:28.772Z,5.07
2023-04-06T04:37:28.769Z,5.07
2023-04-06T04:38:28.778Z,5.04
2023-04-06T04:39:28.765Z,5.04
2023-04-06T04:40:28.753Z,5.07
2023-04-06T04:41:28.759Z,4.96
2023-04-06T04:42:28.745Z,4.92
2023-04-06T04:43:30.183Z,4.94
2023-04-06T04:44:28.738Z,4.96
2023-04-06T04:45:28.740Z,4.99
2023-04-06T04:46:28.781Z,4.99
2023-04-06T04:47:28.733Z,5.02
2023-04-06T04:48:28.742Z,5.04
2023-04-06T04:49:28.716Z,5.04
2023-04-06T04:50:28.704Z,4.96
2023-04-06T04:51:28.713Z,5.02
2023-04-06T04:52:28.698Z,5.10
2023-04-06T04:53:28.694Z,4.99
2023-04-06T04:54:28.689Z,5.04
2023-04-06T04:55:28.685Z,5.00
2023-04-06T04:56:28.713Z,5.04
2023-04-06T04:57:28.677Z,5.03
2023-04-06T04:58:28.667Z,5.04
2023-04-06T04:59:28.692Z,5.06
2023-04-06T05:00:28.654Z,4.97
2023-04-06T05:01:28.712Z,5.03
2023-04-06T05:02:28.706Z,4.96
2023-04-06T05:03:28.722Z,4.91
2023-04-06T05:04:28.665Z,4.89
2023-04-06T05:05:28.633Z,4.84
2023-04-06T05:06:28.626Z,4.91
2023-04-06T05:07:28.625Z,4.89
2023-04-06T05:08:28.724Z,4.86
2023-04-06T05:09:28.616Z,4.85
2023-04-06T05:10:28.604Z,4.73
2023-04-06T05:11:28.607Z,4.77
2023-04-06T05:12:28.599Z,4.85
2023-04-06T05:13:28.593Z,4.91
2023-04-06T05:14:28.582Z,4.80
2023-04-06T05:15:28.576Z,4.85
2023-04-06T05:16:28.575Z,4.94
2023-04-06T05:17:28.634Z,4.84
2023-04-06T05:18:28.560Z,4.86
2023-04-06T05:19:28.563Z,4.86
2023-04-06T05:20:28.573Z,4.85
2023-04-06T05:21:28.559Z,4.86
2023-04-06T05:22:28.550Z,4.73
2023-04-06T05:23:28.548Z,4.88
2023-04-06T05:24:28.551Z,4.82
2023-04-06T05:25:28.554Z,4.89
2023-04-06T05:26:28.518Z,4.78
2023-04-06T05:27:28.529Z,4.86
2023-04-06T05:28:28.510Z,4.97
2023-04-06T05:29:28.503Z,4.97
2023-04-06T05:30:28.499Z,4.85
2023-04-06T05:31:28.552Z,4.75
2023-04-06T05:32:28.526Z,4.75
2023-04-06T05:33:28.511Z,4.78
2023-04-06T05:34:28.477Z,4.85
2023-04-06T05:35:28.502Z,4.94
2023-04-06T05:36:28.493Z,4.89
2023-04-06T05:37:28.463Z,4.85
2023-04-06T05:38:28.447Z,4.92
2023-04-06T05:39:28.457Z,4.85
2023-04-06T05:40:28.455Z,4.92
2023-04-06T05:41:28.434Z,4.96
2023-04-06T05:42:28.431Z,5.06
2023-04-06T05:43:28.437Z,5.15
2023-04-06T05:44:28.416Z,5.28
2023-04-06T05:45:28.411Z,5.27
2023-04-06T05:46:28.468Z,5.35
2023-04-06T05:47:28.426Z,5.35
2023-04-06T05:48:28.397Z,5.28
2023-04-06T05:49:28.390Z,5.38
2023-04-06T05:50:28.392Z,5.39
2023-04-06T05:51:28.424Z,5.40
2023-04-06T05:52:28.392Z,5.53
2023-04-06T05:53:28.367Z,5.58
2023-04-06T05:54:28.358Z,5.60
2023-04-06T05:55:28.353Z,5.61
2023-04-06T05:56:28.350Z,5.64
2023-04-06T05:57:28.343Z,5.79
2023-04-06T05:58:28.336Z,5.85
2023-04-06T05:59:28.386Z,5.90
2023-04-06T06:00:28.344Z,5.94
2023-04-06T06:01:28.322Z,6.11
2023-04-06T06:02:28.427Z,6.14
2023-04-06T06:03:28.320Z,6.27
2023-04-06T06:04:28.326Z,6.37
2023-04-06T06:05:28.353Z,6.48
2023-04-06T06:06:28.296Z,6.43
2023-04-06T06:07:28.287Z,6.46
2023-04-06T06:08:28.306Z,6.66
2023-04-06T06:09:28.279Z,6.73
2023-04-06T06:10:28.394Z,6.74
2023-04-06T06:11:28.277Z,6.87
2023-04-06T06:12:28.271Z,6.77
2023-04-06T06:13:28.253Z,6.98
2023-04-06T06:14:28.257Z,6.98
2023-04-06T06:15:28.263Z,7.21
2023-04-06T06:16:28.261Z,7.20
2023-04-06T06:17:28.275Z,7.37
2023-04-06T06:18:28.244Z,7.39
2023-04-06T06:19:28.230Z,7.40
2023-04-06T06:20:28.314Z,7.50
2023-04-06T06:21:28.221Z,7.69
2023-04-06T06:22:28.212Z,7.79
2023-04-06T06:23:28.203Z,7.75
2023-04-06T06:24:29.604Z,7.95
2023-04-06T06:25:28.207Z,8.05
2023-04-06T06:26:28.195Z,8.08
2023-04-06T06:27:28.186Z,8.19
2023-04-06T06:28:28.184Z,8.26
2023-04-06T06:29:28.173Z,8.33
2023-04-06T06:30:28.248Z,8.40
2023-04-06T06:31:28.216Z,8.48
2023-04-06T06:32:28.218Z,8.71
2023-04-06T06:33:28.165Z,8.77
2023-04-06T06:34:28.160Z,8.89
2023-04-06T06:35:28.186Z,8.92
2023-04-06T06:36:28.145Z,9.05
2023-04-06T06:37:29.271Z,9.20
2023-04-06T06:38:28.151Z,9.36
2023-04-06T06:39:28.149Z,9.54
2023-04-06T06:40:28.369Z,9.65
2023-04-06T06:41:28.450Z,9.81
2023-04-06T06:42:28.118Z,10.14
2023-04-06T06:43:28.110Z,10.40
2023-04-06T06:44:28.111Z,10.68
2023-04-06T06:45:28.219Z,11.04
2023-04-06T06:46:28.108Z,11.54
2023-04-06T06:47:28.155Z,11.95
2023-04-06T06:48:28.096Z,12.49
2023-04-06T06:49:28.087Z,13.10
2023-04-06T06:50:28.114Z,13.28
2023-04-06T06:51:28.098Z,13.38
2023-04-06T06:52:28.090Z,13.79
2023-04-06T06:53:28.076Z,13.54
2023-04-06T06:54:28.089Z,13.55
2023-04-06T06:55:28.075Z,13.67
2023-04-06T06:56:28.133Z,13.92
2023-04-06T06:57:28.060Z,14.37
2023-04-06T06:58:28.088Z,14.72
2023-04-06T06:59:28.087Z,14.54
2023-04-06T07:00:28.062Z,14.43
2023-04-06T07:01:28.092Z,14.54
2023-04-06T07:02:28.085Z,14.98
2023-04-06T07:03:28.082Z,15.10
2023-04-06T07:04:28.091Z,15.31
2023-04-06T07:05:29.160Z,15.67
2023-04-06T07:06:28.038Z,16.02
2023-04-06T07:07:28.030Z,16.42
2023-04-06T07:08:28.029Z,16.60
2023-04-06T07:09:28.027Z,16.75
2023-04-06T07:10:28.036Z,17.14
2023-04-06T07:11:28.053Z,17.74
2023-04-06T07:12:28.034Z,18.07
2023-04-06T07:13:28.025Z,18.51
2023-04-06T07:14:28.019Z,18.98
2023-04-06T07:15:28.010Z,19.11
2023-04-06T07:16:28.079Z,19.16
2023-04-06T07:17:28.012Z,19.08
2023-04-06T07:18:27.997Z,18.57
2023-04-06T07:19:27.998Z,18.65
2023-04-06T07:20:27.999Z,19.02
2023-04-06T07:21:27.994Z,19.66
2023-04-06T07:22:27.988Z,19.99
2023-04-06T07:23:31.562Z,20.54
2023-04-06T07:24:27.984Z,20.84
2023-04-06T07:25:28.030Z,20.99
2023-04-06T07:26:27.988Z,20.94
2023-04-06T07:27:27.977Z,21.16
2023-04-06T07:28:28.046Z,20.43
2023-04-06T07:29:27.982Z,20.16
2023-04-06T07:30:27.992Z,20.14
2023-04-06T07:31:28.016Z,20.03
2023-04-06T07:32:28.035Z,20.42
2023-04-06T07:33:27.978Z,20.92
2023-04-06T07:34:28.008Z,21.01
2023-04-06T07:35:27.977Z,21.75
2023-04-06T07:36:27.972Z,22.03
2023-04-06T07:37:27.971Z,22.22
2023-04-06T07:38:27.971Z,22.39
2023-04-06T07:39:27.966Z,22.31
2023-04-06T07:40:27.972Z,22.42
2023-04-06T07:41:27.964Z,22.73
2023-04-06T07:42:27.965Z,23.01
2023-04-06T07:43:27.961Z,22.43
2023-04-06T07:44:27.986Z,23.00
2023-04-06T07:45:27.984Z,23.58
2023-04-06T07:46:27.997Z,23.87
2023-04-06T07:47:27.971Z,24.47
2023-04-06T07:48:27.967Z,25.02
2023-04-06T07:49:27.965Z,25.17
2023-04-06T07:50:27.992Z,25.28
2023-04-06T07:51:27.961Z,25.39
2023-04-06T07:52:27.974Z,25.46
2023-04-06T07:53:27.964Z,25.46
2023-04-06T07:54:27.969Z,25.46
2023-04-06T07:55:27.964Z,25.38
2023-04-06T07:56:27.975Z,25.52
2023-04-06T07:57:27.963Z,25.61
2023-04-06T07:58:27.973Z,26.05
2023-04-06T07:59:28.010Z,26.44
2023-04-06T08:00:27.996Z,26.58
2023-04-06T08:01:27.966Z,25.90
2023-04-06T08:02:28.043Z,25.94
2023-04-06T08:03:28.091Z,25.62
2023-04-06T08:04:27.987Z,25.65
2023-04-06T08:05:27.976Z,25.98
2023-04-06T08:06:27.967Z,26.21
2023-04-06T08:07:27.969Z,25.80
2023-04-06T08:08:27.974Z,25.57
2023-04-06T08:09:27.977Z,25.55
2023-04-06T08:10:27.976Z,25.47
2023-04-06T08:11:27.981Z,25.23
2023-04-06T08:12:27.975Z,25.00
2023-04-06T08:13:27.975Z,25.82
2023-04-06T08:14:28.013Z,24.50
2023-04-06T08:15:28.033Z,24.45
2023-04-06T08:16:28.005Z,23.35
2023-04-06T08:17:27.999Z,22.60
2023-04-06T08:18:27.989Z,22.58
2023-04-06T08:19:27.986Z,22.18
2023-04-06T08:20:28.028Z,22.64
2023-04-06T08:21:28.010Z,22.51
2023-04-06T08:22:28.003Z,22.75
2023-04-06T08:23:27.998Z,23.54
2023-04-06T08:24:28.017Z,24.20
2023-04-06T08:25:28.004Z,24.95
2023-04-06T08:26:28.013Z,25.24
2023-04-06T08:27:28.017Z,25.92
2023-04-06T08:28:28.012Z,25.92
2023-04-06T08:29:28.008Z,26.36
2023-04-06T08:30:28.020Z,26.40
2023-04-06T08:31:28.072Z,26.52
2023-04-06T08:32:28.066Z,25.99
2023-04-06T08:33:28.026Z,25.77
2023-04-06T08:34:28.031Z,25.95
2023-04-06T08:35:28.074Z,25.91
2023-04-06T08:36:28.040Z,26.37
2023-04-06T08:37:28.046Z,26.73
2023-04-06T08:38:28.060Z,27.19
2023-04-06T08:39:28.050Z,26.81
2023-04-06T08:40:28.071Z,26.13
2023-04-06T08:41:28.061Z,26.21
2023-04-06T08:42:28.068Z,25.94
2023-04-06T08:43:28.091Z,26.28
2023-04-06T08:44:28.145Z,26.66
2023-04-06T08:45:28.087Z,27.09
2023-04-06T08:46:28.107Z,27.04
2023-04-06T08:47:28.114Z,27.13
2023-04-06T08:48:28.143Z,27.51
2023-04-06T08:49:28.112Z,27.31
2023-04-06T08:50:28.125Z,27.39
2023-04-06T08:51:28.130Z,26.69
2023-04-06T08:52:28.151Z,26.57
2023-04-06T08:53:28.147Z,26.58
2023-04-06T08:54:28.147Z,26.48
2023-04-06T08:55:28.151Z,26.65
2023-04-06T08:56:28.167Z,27.24
2023-04-06T08:57:28.166Z,27.99
2023-04-06T08:58:37.758Z,27.44
2023-04-06T08:59:28.281Z,25.13
2023-04-06T09:00:28.197Z,23.76
2023-04-06T09:01:28.270Z,23.01
2023-04-06T09:02:28.326Z,23.20
2023-04-06T09:03:28.416Z,23.79
2023-04-06T09:04:28.365Z,24.50
2023-04-06T09:05:28.236Z,25.18
2023-04-06T09:06:28.267Z,25.62
2023-04-06T09:07:28.248Z,25.23
2023-04-06T09:08:28.260Z,24.39
2023-04-06T09:09:28.264Z,24.45
2023-04-06T09:10:28.286Z,24.76
2023-04-06T09:11:28.285Z,25.09
2023-04-06T09:12:28.308Z,24.31
2023-04-06T09:13:28.320Z,23.46
2023-04-06T09:14:28.307Z,22.91
2023-04-06T09:15:28.314Z,23.19
2023-04-06T09:16:28.383Z,23.88
2023-04-06T09:17:28.384Z,24.57
2023-04-06T09:18:28.337Z,24.93
2023-04-06T09:19:28.337Z,23.98
2023-04-06T09:20:28.396Z,23.22
2023-04-06T09:21:28.361Z,22.02
2023-04-06T09:22:28.369Z,21.46
2023-04-06T09:23:28.450Z,21.09
2023-04-06T09:24:28.379Z,19.88
2023-04-06T09:25:28.393Z,19.10
2023-04-06T09:26:28.399Z,18.20
2023-04-06T09:27:28.404Z,17.86
2023-04-06T09:28:28.423Z,17.75
2023-04-06T09:29:28.425Z,17.82
2023-04-06T09:30:28.435Z,18.18
2023-04-06T09:31:28.455Z,19.68
2023-04-06T09:32:28.478Z,20.36
2023-04-06T09:33:28.426Z,21.07
2023-04-06T09:34:28.437Z,21.31
2023-04-06T09:35:28.573Z,22.28
2023-04-06T09:36:28.459Z,22.35
2023-04-06T09:37:28.443Z,22.91
2023-04-06T09:38:28.452Z,23.53
2023-04-06T09:39:28.467Z,24.10
2023-04-06T09:40:28.476Z,24.25
2023-04-06T09:41:28.458Z,23.72
2023-04-06T09:42:28.465Z,23.68
2023-04-06T09:43:28.468Z,22.75
2023-04-06T09:44:28.472Z,21.42
2023-04-06T09:45:28.483Z,20.31
2023-04-06T09:46:28.517Z,19.80
2023-04-06T09:47:29.704Z,18.57
2023-04-06T09:48:29.661Z,18.69
2023-04-06T09:49:28.489Z,19.47
2023-04-06T09:50:28.500Z,19.94
2023-04-06T09:51:28.492Z,20.72
2023-04-06T09:52:28.525Z,21.34
2023-04-06T09:53:28.500Z,21.52
2023-04-06T09:54:28.504Z,21.10
2023-04-06T09:55:28.505Z,20.38
2023-04-06T09:56:28.545Z,19.98
2023-04-06T09:57:28.508Z,19.58
2023-04-06T09:58:28.520Z,19.14
2023-04-06T09:59:28.579Z,18.62
2023-04-06T10:00:28.564Z,18.29
2023-04-06T10:01:28.570Z,17.93
2023-04-06T10:02:28.705Z,17.79
2023-04-06T10:03:28.631Z,17.81
2023-04-06T10:04:28.517Z,17.49
2023-04-06T10:05:28.519Z,17.36
2023-04-06T10:06:28.553Z,17.41
2023-04-06T10:07:28.528Z,17.46
2023-04-06T10:08:30.914Z,17.52
2023-04-06T10:09:28.520Z,17.49
2023-04-06T10:10:28.535Z,17.58
2023-04-06T10:11:28.524Z,17.54
2023-04-06T10:12:28.522Z,17.31
2023-04-06T10:13:28.534Z,17.56
2023-04-06T10:14:28.530Z,17.89
2023-04-06T10:15:28.536Z,17.89
2023-04-06T10:16:28.553Z,17.46
2023-04-06T10:17:28.577Z,17.54
2023-04-06T10:18:28.536Z,17.48
2023-04-06T10:19:28.547Z,17.79
2023-04-06T10:20:28.531Z,17.82
2023-04-06T10:21:28.542Z,17.41
2023-04-06T10:22:28.532Z,17.12
2023-04-06T10:23:28.541Z,17.43
2023-04-06T10:24:28.557Z,17.82
2023-04-06T10:25:28.547Z,17.97
2023-04-06T10:26:28.544Z,17.70
2023-04-06T10:27:28.548Z,17.58
2023-04-06T10:28:28.536Z,17.08
2023-04-06T10:29:28.568Z,16.98
2023-04-06T10:30:28.544Z,17.04
2023-04-06T10:31:28.747Z,16.42
2023-04-06T10:32:28.564Z,15.92
2023-04-06T10:33:28.566Z,16.07
2023-04-06T10:34:28.569Z,16.20
2023-04-06T10:35:28.549Z,16.12
2023-04-06T10:36:28.574Z,15.94
2023-04-06T10:37:28.572Z,15.74
2023-04-06T10:38:28.556Z,15.67
2023-04-06T10:39:28.558Z,15.83
2023-04-06T10:40:28.590Z,15.92
2023-04-06T10:41:28.559Z,16.34
2023-04-06T10:42:28.559Z,16.67
2023-04-06T10:43:28.621Z,17.14
2023-04-06T10:44:28.559Z,17.44
2023-04-06T10:45:28.613Z,17.75
2023-04-06T10:46:28.580Z,18.10
2023-04-06T10:47:28.594Z,18.45
2023-04-06T10:48:28.577Z,18.52
2023-04-06T10:49:28.578Z,18.58
2023-04-06T10:50:28.563Z,18.47
2023-04-06T10:51:28.589Z,18.36
2023-04-06T10:52:28.562Z,17.93
2023-04-06T10:53:28.568Z,17.82
2023-04-06T10:54:28.592Z,17.89
2023-04-06T10:55:28.564Z,17.93
2023-04-06T10:56:28.596Z,18.17
2023-04-06T10:57:28.563Z,18.11
2023-04-06T10:58:28.592Z,18.12
2023-04-06T10:59:28.601Z,17.97
2023-04-06T11:00:39.351Z,17.71
2023-04-06T11:01:28.622Z,17.84
2023-04-06T11:02:28.606Z,18.11
2023-04-06T11:03:28.580Z,18.26
2023-04-06T11:04:28.579Z,18.50
2023-04-06T11:05:28.585Z,18.66
2023-04-06T11:06:28.563Z,18.99
2023-04-06T11:07:28.571Z,18.99
2023-04-06T11:08:28.590Z,19.14
2023-04-06T11:09:28.567Z,18.85
2023-04-06T11:10:28.566Z,18.99
2023-04-06T11:11:28.571Z,18.99
2023-04-06T11:12:28.586Z,18.87
2023-04-06T11:13:28.573Z,18.54
2023-04-06T11:14:28.572Z,18.45
2023-04-06T11:15:28.595Z,18.11
2023-04-06T11:16:28.595Z,18.15
2023-04-06T11:17:28.636Z,18.12
2023-04-06T11:18:28.571Z,17.90
2023-04-06T11:19:28.572Z,17.96
2023-04-06T11:20:28.592Z,18.23
2023-04-06T11:21:28.580Z,18.42
2023-04-06T11:22:28.570Z,18.52
2023-04-06T11:23:28.580Z,18.54
2023-04-06T11:24:28.572Z,18.60
2023-04-06T11:25:28.572Z,19.04
2023-04-06T11:26:28.575Z,19.55
2023-04-06T11:27:28.580Z,19.56
2023-04-06T11:28:28.604Z,19.78
2023-04-06T11:29:28.596Z,19.92
2023-04-06T11:30:28.578Z,19.98
2023-04-06T11:31:28.611Z,19.98
2023-04-06T11:32:28.603Z,20.03
2023-04-06T11:33:28.582Z,19.81
2023-04-06T11:34:28.583Z,19.86
2023-04-06T11:35:28.591Z,19.73
2023-04-06T11:36:29.371Z,19.95
2023-04-06T11:37:28.616Z,20.21
2023-04-06T11:38:28.588Z,20.41
2023-04-06T11:39:28.588Z,20.74
2023-04-06T11:40:28.591Z,20.87
2023-04-06T11:41:28.594Z,20.58
2023-04-06T11:42:28.591Z,19.83
2023-04-06T11:43:28.594Z,19.77
2023-04-06T11:44:28.604Z,19.95
2023-04-06T11:45:28.610Z,20.01
2023-04-06T11:46:28.620Z,20.14
2023-04-06T11:47:28.657Z,20.54
2023-04-06T11:48:28.622Z,20.70
2023-04-06T11:49:28.605Z,20.97
2023-04-06T11:50:28.612Z,20.89
2023-04-06T11:51:28.612Z,20.76
2023-04-06T11:52:28.610Z,21.01
2023-04-06T11:53:28.606Z,20.84
2023-04-06T11:55:28.921Z,21.10
2023-04-06T11:56:28.603Z,21.47
2023-04-06T11:57:28.613Z,21.47
2023-04-06T11:58:28.613Z,21.50
2023-04-06T11:59:28.665Z,21.61
2023-04-06T12:00:28.639Z,21.49
2023-04-06T12:01:28.649Z,21.40
2023-04-06T12:02:28.653Z,21.14
2023-04-06T12:03:28.772Z,20.36
2023-04-06T12:04:28.638Z,19.80
2023-04-06T12:05:28.621Z,19.37
2023-04-06T12:06:28.629Z,19.22
2023-04-06T12:07:28.620Z,19.31
2023-04-06T12:08:28.621Z,19.10
2023-04-06T12:09:28.648Z,19.14
2023-04-06T12:10:28.619Z,19.54
2023-04-06T12:11:28.626Z,19.56
2023-04-06T12:12:28.626Z,19.43
2023-04-06T12:13:28.632Z,19.76
2023-04-06T12:14:28.628Z,20.18
2023-04-06T12:15:28.631Z,20.18
2023-04-06T12:16:28.706Z,20.54
2023-04-06T12:17:28.681Z,20.58
2023-04-06T12:18:28.636Z,20.33
2023-04-06T12:19:29.927Z,20.74
2023-04-06T12:20:28.706Z,20.82
2023-04-06T12:21:28.638Z,20.06
2023-04-06T12:22:28.652Z,19.13
2023-04-06T12:23:28.656Z,19.08
2023-04-06T12:24:28.654Z,19.46
2023-04-06T12:25:29.626Z,19.51
2023-04-06T12:26:28.648Z,19.65
2023-04-06T12:27:28.654Z,19.41
2023-04-06T12:28:28.651Z,19.32
2023-04-06T12:29:28.671Z,19.43
2023-04-06T12:30:28.664Z,19.55
2023-04-06T12:31:28.692Z,19.44
2023-04-06T12:32:28.710Z,19.41
2023-04-06T12:33:28.731Z,18.95
2023-04-06T12:34:28.660Z,18.90
2023-04-06T12:35:28.692Z,18.98
2023-04-06T12:36:29.077Z,18.95
2023-04-06T12:37:28.673Z,19.28
2023-04-06T12:38:28.673Z,19.19
2023-04-06T12:39:28.699Z,19.19
2023-04-06T12:40:28.676Z,19.44
2023-04-06T12:41:28.677Z,19.48
2023-04-06T12:42:28.695Z,19.55
2023-04-06T12:43:28.681Z,19.31
2023-04-06T12:44:28.704Z,19.31
2023-04-06T12:45:29.020Z,18.70
2023-04-06T12:46:28.706Z,18.42
2023-04-06T12:47:28.703Z,18.47
2023-04-06T12:48:28.714Z,18.54
2023-04-06T12:49:29.834Z,18.35
2023-04-06T12:50:28.692Z,18.15
2023-04-06T12:51:28.699Z,18.41
2023-04-06T12:52:28.699Z,18.45
2023-04-06T12:53:28.704Z,18.66
2023-04-06T12:54:28.704Z,18.70
2023-04-06T12:55:28.708Z,18.36
2023-04-06T12:56:28.708Z,18.07
2023-04-06T12:57:28.710Z,17.56
2023-04-06T12:58:28.709Z,17.59
2023-04-06T12:59:28.875Z,17.40
2023-04-06T13:00:28.769Z,17.51
2023-04-06T13:01:28.853Z,17.48
2023-04-06T13:02:28.811Z,17.66
2023-04-06T13:03:28.755Z,17.68
2023-04-06T13:04:28.755Z,17.52
2023-04-06T13:05:29.966Z,17.37
2023-04-06T13:06:29.108Z,17.38
2023-04-06T13:07:28.728Z,17.15